Time;durP1;ratioP1;P1;durP2;ratioP2;P2;SDS_P1;SDS_P2;PMS_P1;PMS_P2;Temp;Humidity;BMP_temperature;BMP_pressure;BME280_temperature;BME280_humidity;BME280_pressure;Samples;Min_cycle;Max_cycle;Signal;HPM_P1;HPM_P2
2022/12/17 13:08:07;;;;;;;4.37;2.33;;;;;;;12.95;100.00;94456.72;5072243;28;20560;-54
2022/12/17 13:10:34;;;;;;;5.20;3.23;;;;;;;12.91;100.00;94467.38;5072996;28;20541;-55
2022/12/17 13:13:26;;;;;;;4.53;2.97;;;;;;;12.81;100.00;94459.00;5055086;28;20559;-55
2022/12/17 13:16:00;;;;;;;7.40;3.33;;;;;;;12.68;100.00;94457.63;5059567;28;20260;-56
2022/12/17 13:18:40;;;;;;;5.43;3.03;;;;;;;12.97;100.00;94464.25;5072860;28;20190;-53
2022/12/17 13:21:14;;;;;;;5.07;3.30;;;;;;;12.95;100.00;94459.25;5072772;28;20216;-55
2022/12/17 13:23:40;;;;;;;5.30;3.40;;;;;;;12.81;100.00;94457.25;5073059;28;20223;-55
2022/12/17 13:26:14;;;;;;;6.90;3.17;;;;;;;12.48;100.00;94458.72;5053521;28;20640;-56
2022/12/17 13:28:39;;;;;;;5.70;3.23;;;;;;;12.60;100.00;94477.94;5071305;28;20330;-53
2022/12/17 13:31:15;;;;;;;3.60;2.80;;;;;;;12.77;100.00;94491.66;5071290;28;20303;-55
2022/12/17 13:34:05;;;;;;;3.67;2.70;;;;;;;12.80;100.00;94486.28;5072936;28;20654;-57
2022/12/17 13:36:45;;;;;;;6.03;4.00;;;;;;;12.72;100.00;94485.41;5073097;28;20217;-52
2022/12/17 13:39:32;;;;;;;6.53;3.83;;;;;;;12.86;100.00;94485.69;5072590;28;20204;-53
2022/12/17 13:41:58;;;;;;;5.57;4.23;;;;;;;12.75;100.00;94495.28;5072755;28;20216;-53
2022/12/17 13:44:28;;;;;;;7.67;4.30;;;;;;;12.60;100.00;94493.25;5072202;28;20713;-53
2022/12/17 13:46:54;;;;;;;5.67;4.23;;;;;;;12.67;100.00;94493.47;5071919;28;20216;-53
2022/12/17 13:49:19;;;;;;;6.50;4.40;;;;;;;12.58;100.00;94484.94;5070763;28;20212;-55
2022/12/17 13:51:45;;;;;;;8.97;5.53;;;;;;;12.56;100.00;94486.84;5070850;28;20250;-56
2022/12/17 13:54:21;;;;;;;6.60;4.60;;;;;;;12.52;100.00;94494.94;5072385;28;20334;-54
2022/12/17 13:56:47;;;;;;;7.07;4.80;;;;;;;12.72;100.00;94505.81;5072423;28;20217;-54
2022/12/17 13:59:19;;;;;;;5.83;4.50;;;;;;;12.72;100.00;94508.34;5054448;28;20730;-54
2022/12/17 14:01:47;;;;;;;8.13;4.60;;;;;;;12.39;100.00;94499.59;5072384;28;20224;-54
2022/12/17 14:04:27;;;;;;;6.00;5.00;;;;;;;12.55;100.00;94503.09;5072148;28;20212;-57
2022/12/17 14:06:57;;;;;;;6.27;4.27;;;;;;;12.51;100.00;94496.69;5072269;28;20204;-54
2022/12/17 14:09:31;;;;;;;6.53;4.83;;;;;;;12.38;100.00;94506.44;5072057;28;20212;-54
2022/12/17 14:14:45;;;;;;;7.63;5.00;;;;;;;12.08;100.00;94509.28;5057215;28;20219;-54
2022/12/17 14:17:19;;;;;;;6.37;4.43;;;;;;;12.32;100.00;94516.41;5054613;28;20224;-56
2022/12/17 14:19:51;;;;;;;8.27;5.57;;;;;;;12.20;100.00;94512.47;5091295;22;20258;-56
2022/12/17 14:22:31;;;;;;;9.17;4.80;;;;;;;12.00;100.00;94523.72;5112375;28;20198;-56
2022/12/17 14:24:57;;;;;;;7.30;5.50;;;;;;;12.23;100.00;94527.47;5112379;28;20214;-55
2022/12/17 14:27:30;;;;;;;8.27;5.30;;;;;;;12.18;100.00;94529.66;5112374;28;20600;-55
2022/12/17 14:29:55;;;;;;;6.60;4.67;;;;;;;12.24;100.00;94537.50;5112615;28;20748;-58
2022/12/17 14:32:24;;;;;;;9.10;4.97;;;;;;;12.29;100.00;94532.00;5112438;28;20223;-53
2022/12/17 14:34:50;;;;;;;14.50;5.67;;;;;;;12.16;100.00;94531.53;5112422;28;20311;-54
2022/12/17 14:37:20;;;;;;;9.30;6.30;;;;;;;12.12;100.00;94520.03;5112112;28;20246;-53
2022/12/17 14:39:47;;;;;;;10.50;6.73;;;;;;;12.05;100.00;94522.34;5112446;28;20668;-56
2022/12/17 14:42:25;;;;;;;12.27;5.70;;;;;;;12.23;100.00;94525.72;5112219;28;20227;-56
2022/12/17 14:45:01;;;;;;;10.90;6.60;;;;;;;12.21;100.00;94542.09;5111541;28;20225;-54
2022/12/17 14:47:30;;;;;;;18.23;7.90;;;;;;;12.07;100.00;94532.38;5110764;28;20198;-57
2022/12/17 14:50:08;;;;;;;10.63;6.27;;;;;;;11.89;100.00;94532.34;5111164;28;20604;-54
2022/12/17 14:52:40;;;;;;;15.57;8.20;;;;;;;11.85;100.00;94542.94;5112117;28;20191;-54
2022/12/17 14:55:50;;;;;;;15.27;7.10;;;;;;;11.96;100.00;94551.19;5112196;28;20579;-53
2022/12/17 14:58:19;;;;;;;8.60;6.07;;;;;;;11.98;100.00;94541.66;5064543;28;20207;-55
2022/12/17 15:00:49;;;;;;;12.00;7.27;;;;;;;11.73;100.00;94555.84;5111706;28;20215;-53
2022/12/17 15:03:21;;;;;;;10.13;6.17;;;;;;;11.67;100.00;94550.50;5111493;28;20195;-53
2022/12/17 15:05:51;;;;;;;8.03;5.73;;;;;;;11.73;100.00;94543.13;5111671;28;20207;-54
2022/12/17 15:08:16;;;;;;;8.60;5.70;;;;;;;11.74;100.00;94549.81;5093858;28;20195;-53
2022/12/17 15:10:41;;;;;;;7.03;5.60;;;;;;;11.66;100.00;94544.63;5093572;28;20221;-55
2022/12/17 15:13:07;;;;;;;10.07;5.57;;;;;;;11.82;100.00;94570.28;5111702;28;20191;-53
2022/12/17 15:15:32;;;;;;;10.67;5.83;;;;;;;11.67;100.00;94581.06;5111918;28;20254;-56
2022/12/17 15:17:58;;;;;;;9.03;6.00;;;;;;;11.43;100.00;94566.19;5111613;28;20269;-54
2022/12/17 15:20:24;;;;;;;7.57;5.50;;;;;;;11.65;100.00;94563.34;5111811;28;20219;-54
2022/12/17 15:22:49;;;;;;;11.33;5.33;;;;;;;11.50;100.00;94569.81;5093127;28;20589;-54
2022/12/17 15:25:18;;;;;;;10.23;5.97;;;;;;;11.41;100.00;94585.13;5111584;28;20215;-53
2022/12/17 15:27:44;;;;;;;11.53;5.87;;;;;;;11.37;100.00;94578.69;5111670;28;20292;-55
2022/12/17 15:30:14;;;;;;;8.63;5.03;;;;;;;11.49;100.00;94588.56;5093467;28;20210;-57
2022/12/17 15:32:40;;;;;;;7.27;5.03;;;;;;;11.43;100.00;94593.41;5110843;28;20183;-56
2022/12/17 15:35:05;;;;;;;8.77;4.70;;;;;;;11.38;100.00;94586.19;5111414;28;20207;-53
2022/12/17 15:37:31;;;;;;;6.47;4.90;;;;;;;11.43;100.00;94588.31;5111217;28;20183;-56
2022/12/17 15:39:56;;;;;;;10.57;4.87;;;;;;;11.36;100.00;94592.34;5111659;28;20255;-54
2022/12/17 15:45:07;;;;;;;7.00;4.80;;;;;;;11.49;100.00;94586.00;5111710;28;20299;-56
2022/12/17 15:47:32;;;;;;;9.37;5.73;;;;;;;11.50;100.00;94589.38;5111254;28;20266;-56
2022/12/17 15:49:58;;;;;;;8.50;5.57;;;;;;;11.39;100.00;94602.25;5110676;28;20282;-55
2022/12/17 15:52:23;;;;;;;9.73;6.03;;;;;;;11.30;100.00;94590.34;5110828;28;20233;-55
2022/12/17 15:54:48;;;;;;;10.17;5.73;;;;;;;11.33;100.00;94585.78;5109438;28;20207;-54
2022/12/17 15:57:14;;;;;;;8.20;5.60;;;;;;;11.33;100.00;94598.50;5109338;28;20260;-53
2022/12/17 15:59:39;;;;;;;14.17;7.43;;;;;;;11.29;100.00;94588.75;5110138;28;20211;-56
2022/12/17 16:02:05;;;;;;;11.87;5.90;;;;;;;11.42;100.00;94590.06;5111367;28;20657;-56
2022/12/17 16:04:31;;;;;;;11.33;5.80;;;;;;;11.31;100.00;94608.00;5111401;28;20211;-56
2022/12/17 16:06:56;;;;;;;9.47;5.60;;;;;;;11.28;100.00;94593.03;5111093;28;20270;-53
2022/12/17 16:09:24;;;;;;;9.57;5.70;;;;;;;11.31;100.00;94589.41;5111165;28;20200;-61
2022/12/17 16:11:55;;;;;;;14.70;8.63;;;;;;;11.17;100.00;94628.00;5110911;28;20180;-56
2022/12/17 16:14:22;;;;;;;15.23;8.50;;;;;;;11.04;100.00;94613.00;5111002;28;20246;-57
2022/12/17 16:16:47;;;;;;;9.93;7.27;;;;;;;11.08;100.00;94611.78;5110802;28;20249;-54
2022/12/17 16:19:13;;;;;;;16.40;8.70;;;;;;;11.09;100.00;94623.56;5110566;28;20276;-56
2022/12/17 16:21:38;;;;;;;13.37;8.50;;;;;;;11.18;100.00;94632.94;5110252;28;20187;-54
2022/12/17 16:24:04;;;;;;;12.70;7.80;;;;;;;11.25;100.00;94644.16;5109062;28;20264;-55
2022/12/17 16:26:30;;;;;;;11.97;7.43;;;;;;;11.24;100.00;94649.41;5091708;28;20187;-55
2022/12/17 16:28:58;;;;;;;12.70;8.60;;;;;;;11.29;100.00;94647.28;5111004;28;20195;-54
2022/12/17 16:31:24;;;;;;;14.37;8.03;;;;;;;11.21;100.00;94653.00;5110734;28;20195;-55
2022/12/17 16:33:49;;;;;;;18.03;9.07;;;;;;;11.18;100.00;94643.13;5110867;28;20179;-53
2022/12/17 16:36:18;;;;;;;10.53;7.93;;;;;;;11.20;100.00;94655.69;5110622;28;20594;-53
2022/12/17 16:38:46;;;;;;;17.10;9.50;;;;;;;11.20;100.00;94661.59;5110651;28;20256;-55
2022/12/17 16:41:13;;;;;;;12.47;8.17;;;;;;;11.13;100.00;94657.97;5111032;28;20571;-55
2022/12/17 16:43:39;;;;;;;19.70;9.83;;;;;;;11.18;100.00;94655.03;5111636;28;20277;-58
2022/12/17 16:46:05;;;;;;;17.03;8.83;;;;;;;11.20;100.00;94666.69;5114294;28;20254;-56
2022/12/17 16:48:36;;;;;;;16.07;10.03;;;;;;;11.22;100.00;94682.63;5114045;28;20230;-57
2022/12/17 16:51:14;;;;;;;16.27;9.40;;;;;;;11.24;100.00;94683.28;5113916;28;20307;-55
2022/12/17 16:53:40;;;;;;;17.07;10.30;;;;;;;11.26;100.00;94689.06;5114093;28;20223;-53
2022/12/17 16:56:06;;;;;;;13.20;8.73;;;;;;;11.22;100.00;94669.09;5113827;28;20712;-56
2022/12/17 16:58:31;;;;;;;12.23;8.73;;;;;;;11.23;100.00;94679.13;5114013;28;20187;-54
2022/12/17 17:00:56;;;;;;;15.40;9.43;;;;;;;11.21;100.00;94680.22;5113697;28;20268;-56
2022/12/17 17:03:22;;;;;;;19.50;12.73;;;;;;;11.29;100.00;94686.22;5114043;28;20567;-53
2022/12/17 17:05:47;;;;;;;16.43;10.43;;;;;;;11.16;100.00;94688.25;5114143;28;20208;-56
2022/12/17 17:08:12;;;;;;;15.33;9.97;;;;;;;11.03;100.00;94680.03;5113840;28;20225;-55
2022/12/17 17:10:38;;;;;;;14.67;10.00;;;;;;;11.07;100.00;94686.47;5113564;28;20657;-53
2022/12/17 17:13:03;;;;;;;17.57;11.13;;;;;;;11.08;100.00;94692.38;5095598;28;20191;-57
2022/12/17 17:15:29;;;;;;;18.10;11.47;;;;;;;10.91;100.00;94683.63;5113775;28;20215;-54
2022/12/17 17:17:54;;;;;;;21.27;12.17;;;;;;;10.99;100.00;94686.34;5113505;28;20194;-56
2022/12/17 17:20:19;;;;;;;17.47;10.40;;;;;;;10.99;100.00;94696.50;5113482;28;20677;-55
2022/12/17 17:22:45;;;;;;;17.80;12.17;;;;;;;10.95;100.00;94706.16;5095294;28;20195;-55
2022/12/17 17:25:10;;;;;;;18.33;11.83;;;;;;;11.07;100.00;94709.38;5113477;28;20247;-55
2022/12/17 17:27:36;;;;;;;18.60;11.70;;;;;;;10.95;100.00;94706.16;5113615;28;20278;-55
2022/12/17 17:30:01;;;;;;;21.77;13.13;;;;;;;10.88;100.00;94710.16;5095109;28;20207;-53
2022/12/17 17:32:27;;;;;;;23.47;13.17;;;;;;;10.91;100.00;94721.78;5113354;28;20183;-56
2022/12/17 17:34:52;;;;;;;21.00;12.47;;;;;;;10.92;100.00;94720.88;5095296;28;20222;-56
2022/12/17 17:37:18;;;;;;;20.80;12.67;;;;;;;10.77;100.00;94711.97;5094963;28;20336;-56
2022/12/17 17:39:43;;;;;;;17.67;12.30;;;;;;;10.78;100.00;94719.50;5113228;28;20215;-55
2022/12/17 17:42:09;;;;;;;18.77;11.13;;;;;;;10.90;100.00;94722.75;5113120;28;20199;-54
2022/12/17 17:44:34;;;;;;;19.33;11.57;;;;;;;10.88;100.00;94720.34;5113108;28;20638;-55
2022/12/17 17:47:00;;;;;;;20.87;13.17;;;;;;;10.85;100.00;94724.84;5112939;28;20207;-54
2022/12/17 17:49:26;;;;;;;19.60;12.07;;;;;;;10.93;100.00;94730.91;5111851;28;20300;-56
2022/12/17 17:51:52;;;;;;;21.97;12.87;;;;;;;10.92;100.00;94729.31;5111365;28;20672;-57
2022/12/17 17:54:17;;;;;;;18.07;11.30;;;;;;;10.88;100.00;94733.06;5112619;28;20219;-55
2022/12/17 17:56:43;;;;;;;22.40;12.60;;;;;;;10.96;100.00;94740.84;5112995;28;20222;-54
2022/12/17 17:59:14;;;;;;;17.90;9.63;;;;;;;10.96;100.00;94740.84;5112921;28;20240;-54
2022/12/17 18:01:45;;;;;;;18.67;9.63;;;;;;;10.94;100.00;94739.34;5112861;28;20309;-55
2022/12/17 18:04:12;;;;;;;12.97;9.17;;;;;;;11.04;100.00;94765.63;5118582;22;20207;-53
2022/12/17 18:06:40;;;;;;;14.17;9.27;;;;;;;10.90;100.00;94748.16;5092558;28;20573;-53
2022/12/17 18:09:06;;;;;;;15.90;9.00;;;;;;;10.88;100.00;94753.41;5092214;28;20188;-56
2022/12/17 18:11:32;;;;;;;17.77;10.23;;;;;;;10.86;100.00;94760.34;5092348;28;20565;-54
2022/12/17 18:13:59;;;;;;;16.10;10.50;;;;;;;10.86;100.00;94767.16;5092180;28;20203;-54
2022/12/17 18:16:37;;;;;;;23.13;12.50;;;;;;;10.80;100.00;94765.13;5074269;28;20226;-54
2022/12/17 18:19:22;;;;;;;26.57;13.33;;;;;;;10.60;100.00;94776.16;5092262;28;20187;-55
2022/12/17 18:21:48;;;;;;;25.27;15.47;;;;;;;10.65;100.00;94790.09;5074146;28;20281;-54
2022/12/17 18:24:21;;;;;;;25.27;14.10;;;;;;;10.61;100.00;94787.91;5092220;28;20208;-54
2022/12/17 18:26:46;;;;;;;25.30;14.93;;;;;;;10.57;100.00;94786.56;5092207;28;20198;-56
2022/12/17 18:29:16;;;;;;;29.50;17.03;;;;;;;10.60;100.00;94799.84;5092085;28;20223;-55
2022/12/17 18:31:42;;;;;;;27.50;16.57;;;;;;;10.52;100.00;94789.50;5092171;28;20658;-56
2022/12/17 18:34:09;;;;;;;32.60;18.33;;;;;;;10.61;100.00;94805.72;5091924;28;20216;-56
2022/12/17 18:36:38;;;;;;;28.10;17.67;;;;;;;10.62;100.00;94804.81;5092000;28;20265;-54
2022/12/17 18:39:07;;;;;;;33.90;22.23;;;;;;;10.57;100.00;94805.16;5092160;28;20184;-55
2022/12/17 18:44:18;;;;;;;37.43;21.80;;;;;;;10.52;100.00;94809.84;5092043;28;20214;-56
2022/12/17 18:46:44;;;;;;;36.53;23.87;;;;;;;10.43;100.00;94814.84;5091966;28;20238;-56
2022/12/17 18:49:11;;;;;;;34.60;23.60;;;;;;;10.38;100.00;94816.97;5091740;28;20208;-54
2022/12/17 18:51:39;;;;;;;37.30;24.53;;;;;;;10.36;100.00;94832.34;5091740;28;20196;-55
2022/12/17 18:54:06;;;;;;;32.37;20.13;;;;;;;10.21;100.00;94832.75;5091543;28;20196;-56
2022/12/17 18:56:33;;;;;;;30.80;19.77;;;;;;;10.06;100.00;94837.28;5073528;28;20242;-54
2022/12/17 18:58:59;;;;;;;28.47;19.27;;;;;;;9.91;100.00;94839.34;5091422;28;20196;-54
2022/12/17 19:01:26;;;;;;;29.90;19.13;;;;;;;9.77;100.00;94846.44;5091582;28;20245;-57
2022/12/17 19:03:53;;;;;;;28.63;20.43;;;;;;;9.82;100.00;94846.84;5091823;28;20246;-57
2022/12/17 19:06:20;;;;;;;35.47;21.00;;;;;;;9.82;100.00;94846.84;5090528;28;20559;-55
2022/12/17 19:08:47;;;;;;;32.33;20.87;;;;;;;9.78;100.00;94863.25;5091781;28;20614;-56
2022/12/17 19:11:15;;;;;;;33.33;22.73;;;;;;;9.72;100.00;94854.41;5099263;22;20224;-55
2022/12/17 19:13:40;;;;;;;33.40;21.80;;;;;;;9.74;100.00;94870.31;5091432;28;20199;-56
2022/12/17 19:16:09;;;;;;;35.47;22.77;;;;;;;9.72;100.00;94868.81;5091577;28;20579;-55
2022/12/17 19:18:34;;;;;;;32.33;19.70;;;;;;;9.65;100.00;94873.59;5091397;28;20653;-54
2022/12/17 19:21:00;;;;;;;29.60;19.27;;;;;;;9.99;100.00;94889.53;5091552;28;20227;-54
2022/12/17 19:23:26;;;;;;;27.97;18.77;;;;;;;9.77;100.00;94882.78;5091151;28;20219;-54
2022/12/17 19:25:51;;;;;;;29.63;18.00;;;;;;;9.54;100.00;94881.19;5091033;28;20219;-56
2022/12/17 19:28:18;;;;;;;25.70;17.33;;;;;;;9.52;100.00;94888.13;5091242;28;20249;-55
2022/12/17 19:30:43;;;;;;;25.80;17.00;;;;;;;9.46;100.00;94886.06;5056332;28;20223;-55
2022/12/17 19:33:09;;;;;;;26.23;17.70;;;;;;;9.40;100.00;94884.00;5091239;28;20184;-53
2022/12/17 19:35:35;;;;;;;28.90;17.70;;;;;;;9.40;100.00;94894.13;5091090;28;20224;-57
2022/12/17 19:38:01;;;;;;;24.23;16.83;;;;;;;9.35;100.00;94898.78;5090837;28;20200;-56
2022/12/17 19:40:26;;;;;;;26.87;17.23;;;;;;;9.28;100.00;94893.34;5091315;28;20754;-55
2022/12/17 19:42:55;;;;;;;24.20;16.23;;;;;;;9.20;100.00;94892.31;5091406;28;20193;-57
2022/12/17 19:45:21;;;;;;;25.13;15.93;;;;;;;9.13;100.00;94896.25;5090916;28;20236;-56
2022/12/17 19:47:47;;;;;;;29.93;15.27;;;;;;;9.04;100.00;94889.31;5091068;28;20180;-55
2022/12/17 19:50:13;;;;;;;23.47;14.53;;;;;;;9.11;100.00;94893.00;5090713;28;20212;-56
2022/12/17 19:52:39;;;;;;;21.67;14.70;;;;;;;9.08;100.00;94894.03;5091010;28;20180;-58
2022/12/17 19:55:05;;;;;;;21.27;14.30;;;;;;;9.09;100.00;94895.66;5090856;28;20238;-54
2022/12/17 19:57:33;;;;;;;21.27;14.17;;;;;;;9.02;100.00;94898.75;5090812;28;20222;-56
2022/12/17 19:59:59;;;;;;;21.07;13.37;;;;;;;8.99;100.00;94898.97;5090955;28;20249;-55
2022/12/17 20:02:25;;;;;;;20.03;12.77;;;;;;;8.99;100.00;94904.84;5090512;28;20227;-54
2022/12/17 20:04:50;;;;;;;18.17;13.23;;;;;;;8.94;100.00;94908.66;5090379;28;20223;-54
2022/12/17 20:07:16;;;;;;;20.10;13.33;;;;;;;8.90;100.00;94900.50;5090467;28;20188;-55
2022/12/17 20:09:43;;;;;;;23.73;13.07;;;;;;;9.00;100.00;94920.88;5090532;28;20669;-53
2022/12/17 20:12:09;;;;;;;19.47;13.47;;;;;;;8.99;100.00;94929.41;5090350;28;20318;-53
2022/12/17 20:14:34;;;;;;;18.57;12.73;;;;;;;9.08;100.00;94928.72;5090607;28;20299;-55
2022/12/17 20:17:00;;;;;;;19.97;13.37;;;;;;;8.95;100.00;94935.63;5090659;28;20208;-56
2022/12/17 20:19:29;;;;;;;18.57;11.73;;;;;;;8.86;100.00;94937.13;5093797;28;20223;-55
2022/12/17 20:21:56;;;;;;;20.73;12.90;;;;;;;8.95;100.00;94945.75;5093908;28;20199;-57
2022/12/17 20:24:21;;;;;;;17.10;11.97;;;;;;;8.90;100.00;94946.13;5075621;28;20234;-56
2022/12/17 20:26:49;;;;;;;21.90;11.97;;;;;;;8.90;100.00;94952.91;5094020;28;20196;-54
2022/12/17 20:29:15;;;;;;;20.77;13.03;;;;;;;8.91;100.00;94946.91;5075661;28;20216;-55
2022/12/17 20:31:41;;;;;;;19.20;12.87;;;;;;;8.88;100.00;94952.22;5093654;28;20705;-54
2022/12/17 20:34:08;;;;;;;21.20;13.77;;;;;;;8.91;100.00;94946.91;5093890;28;20670;-53
2022/12/17 20:36:34;;;;;;;22.87;13.83;;;;;;;8.88;100.00;94953.03;5093558;28;20200;-55
2022/12/17 20:39:00;;;;;;;19.97;13.27;;;;;;;8.82;100.00;94961.09;5093588;28;20189;-55
2022/12/17 20:41:28;;;;;;;21.90;13.00;;;;;;;8.71;100.00;94963.56;5093497;28;20280;-54
2022/12/17 20:43:54;;;;;;;20.13;12.70;;;;;;;8.71;100.00;94968.66;5093562;28;20632;-56
2022/12/17 20:46:22;;;;;;;18.17;13.60;;;;;;;8.80;100.00;94957.03;5093916;28;20267;-54
2022/12/17 20:48:47;;;;;;;21.30;12.90;;;;;;;8.77;100.00;94969.91;5093406;28;20211;-54
2022/12/17 20:51:20;;;;;;;20.27;12.93;;;;;;;8.81;100.00;94976.38;5075698;28;20239;-56
2022/12/17 20:53:49;;;;;;;18.20;12.43;;;;;;;8.74;100.00;94977.75;5075386;28;20577;-55
2022/12/17 20:56:17;;;;;;;18.13;11.97;;;;;;;8.73;100.00;94979.47;5093435;28;20215;-54
2022/12/17 20:58:43;;;;;;;20.40;12.13;;;;;;;8.73;100.00;94979.47;5093536;28;20249;-55
2022/12/17 21:01:18;;;;;;;20.50;12.37;;;;;;;8.66;100.00;94982.56;5093530;28;20579;-56
2022/12/17 21:03:43;;;;;;;15.33;11.13;;;;;;;8.63;100.00;94987.84;5093428;28;20251;-54
2022/12/17 21:06:11;;;;;;;18.40;11.33;;;;;;;8.52;100.00;94993.72;5093153;28;20247;-54
2022/12/17 21:08:39;;;;;;;21.30;12.07;;;;;;;8.46;100.00;94996.66;5093108;28;20216;-54
2022/12/17 21:11:05;;;;;;;15.80;11.70;;;;;;;8.43;100.00;94996.88;5093415;28;20311;-54
2022/12/17 21:13:32;;;;;;;16.60;11.53;;;;;;;8.46;100.00;94997.47;5093321;28;20188;-54
2022/12/17 21:15:59;;;;;;;17.43;10.83;;;;;;;8.41;100.00;95002.06;5092860;28;20235;-53
2022/12/17 21:18:27;;;;;;;18.07;10.57;;;;;;;8.40;100.00;95004.72;5092504;28;20180;-54
2022/12/17 21:21:08;;;;;;;16.40;10.50;;;;;;;8.47;100.00;95008.41;5093372;28;20735;-54
2022/12/17 21:23:35;;;;;;;14.83;9.77;;;;;;;8.42;100.00;95011.25;5093183;28;20188;-55
2022/12/17 21:26:05;;;;;;;16.00;10.90;;;;;;;8.42;100.00;95016.31;5093337;28;20770;-53
2022/12/17 21:28:32;;;;;;;17.10;10.47;;;;;;;8.40;100.00;95022.44;5092889;28;20187;-55
2022/12/17 21:30:58;;;;;;;15.93;10.87;;;;;;;8.41;100.00;95017.25;5093055;28;20747;-54
2022/12/17 21:33:24;;;;;;;15.80;10.53;;;;;;;8.40;100.00;95022.44;5092850;28;20216;-55
2022/12/17 21:35:49;;;;;;;14.47;10.23;;;;;;;8.44;100.00;95023.84;5093078;28;20305;-55
2022/12/17 21:38:15;;;;;;;13.27;8.93;;;;;;;8.41;100.00;95024.03;5093027;28;20234;-56
2022/12/17 21:40:41;;;;;;;19.63;9.73;;;;;;;8.41;100.00;95022.31;5093235;28;20730;-56
2022/12/17 21:43:09;;;;;;;14.33;9.67;;;;;;;8.43;100.00;95033.16;5093127;28;20625;-53
2022/12/17 21:45:36;;;;;;;12.70;9.23;;;;;;;8.30;100.00;95039.19;5092908;28;20634;-58
2022/12/17 21:48:03;;;;;;;17.07;8.83;;;;;;;8.35;100.00;95043.00;5092730;28;20271;-53
2022/12/17 21:50:29;;;;;;;14.27;9.77;;;;;;;8.35;100.00;95032.06;5092646;28;20208;-56
2022/12/17 21:52:54;;;;;;;13.33;8.67;;;;;;;8.32;100.00;95048.28;5091763;28;20184;-57
2022/12/17 21:55:20;;;;;;;14.23;8.83;;;;;;;8.33;100.00;95039.78;5090881;28;20276;-54
2022/12/17 21:57:46;;;;;;;14.30;8.50;;;;;;;8.23;100.00;95038.78;5074175;28;20750;-54
2022/12/17 22:00:11;;;;;;;14.30;8.20;;;;;;;8.25;100.00;95046.28;5092740;28;20200;-55
2022/12/17 22:02:37;;;;;;;14.57;8.77;;;;;;;8.12;100.00;95042.97;5092593;28;20543;-55
2022/12/17 22:05:02;;;;;;;10.37;7.70;;;;;;;8.13;100.00;95055.50;5092463;28;20210;-55
2022/12/17 22:07:28;;;;;;;12.77;8.03;;;;;;;8.14;100.00;95052.06;5092457;28;20245;-55
2022/12/17 22:09:53;;;;;;;10.50;7.30;;;;;;;8.10;100.00;95054.94;5092371;28;20746;-54
2022/12/17 22:15:10;;;;;;;10.23;7.30;;;;;;;7.99;100.00;95055.66;5092643;28;20360;-55
2022/12/17 22:17:39;;;;;;;12.93;7.70;;;;;;;8.04;100.00;95056.13;5092130;28;20365;-55
2022/12/17 22:20:05;;;;;;;14.03;8.07;;;;;;;7.98;100.00;95054.03;5092418;28;20220;-55
2022/12/17 22:22:30;;;;;;;11.93;8.30;;;;;;;8.00;100.00;95057.25;5073906;28;20283;-56
2022/12/17 22:24:56;;;;;;;8.97;7.23;;;;;;;8.06;100.00;95064.44;5057349;28;20688;-56
2022/12/17 22:27:22;;;;;;;11.60;7.60;;;;;;;7.99;100.00;95063.25;5092134;28;20623;-54
2022/12/17 22:35:16;;;;;;;8.93;6.77;;;;;;;7.96;100.00;95078.63;5092032;28;20630;-55
2022/12/17 22:37:42;;;;;;;7.90;6.17;;;;;;;7.88;100.00;95078.34;5091816;28;20211;-55
2022/12/17 22:40:08;;;;;;;9.37;5.57;;;;;;;7.89;100.00;95076.63;5091940;28;20216;-55
2022/12/17 22:45:17;;;;;;;7.07;5.73;;;;;;;7.76;100.00;95075.84;5091993;28;20233;-53
2022/12/17 22:47:43;;;;;;;6.87;4.83;;;;;;;7.73;100.00;95086.97;5091815;28;20195;-55
2022/12/17 22:50:08;;;;;;;7.10;4.90;;;;;;;7.70;100.00;95083.81;5073683;28;20294;-56
2022/12/17 22:52:34;;;;;;;6.00;4.87;;;;;;;7.71;100.00;95086.25;5091792;28;20198;-55
2022/12/17 22:55:00;;;;;;;5.80;4.23;;;;;;;7.56;100.00;95069.56;5073469;28;20302;-53
2022/12/17 23:00:19;;;;;;;5.10;3.83;;;;;;;7.64;100.00;95100.22;5091983;28;20307;-55
2022/12/17 23:02:44;;;;;;;4.87;3.60;;;;;;;7.46;100.00;95094.66;5091858;28;20188;-56
2022/12/17 23:05:10;;;;;;;4.80;3.43;;;;;;;7.44;100.00;95095.66;5091792;28;20218;-53
2022/12/17 23:07:35;;;;;;;4.83;3.70;;;;;;;7.43;100.00;95094.06;5091497;28;20202;-56
2022/12/17 23:10:00;;;;;;;4.53;3.80;;;;;;;7.39;100.00;95092.63;5073247;28;20265;-57
2022/12/17 23:15:11;;;;;;;5.07;3.70;;;;;;;7.35;100.00;95103.84;5091749;28;20218;-54
2022/12/17 23:17:36;;;;;;;5.03;4.00;;;;;;;7.33;100.00;95121.63;5091383;28;20306;-53
2022/12/17 23:20:03;;;;;;;5.57;3.50;;;;;;;7.27;100.00;95109.38;5091270;28;20732;-53
2022/12/17 23:22:28;;;;;;;5.13;3.40;;;;;;;7.22;100.00;95115.66;5091139;28;20652;-53
2022/12/17 23:24:53;;;;;;;4.37;3.47;;;;;;;7.24;100.00;95122.25;5091336;28;20707;-52
2022/12/17 23:27:19;;;;;;;4.53;3.37;;;;;;;7.16;100.00;95126.16;5091137;28;20196;-53
2022/12/17 23:29:44;;;;;;;5.07;3.47;;;;;;;7.04;100.00;95124.41;5091297;28;20223;-55
2022/12/17 23:32:10;;;;;;;4.33;3.33;;;;;;;7.04;100.00;95127.75;5091278;28;20688;-53
2022/12/17 23:34:35;;;;;;;5.33;3.70;;;;;;;6.98;100.00;95128.16;5091414;28;20217;-54
2022/12/17 23:37:00;;;;;;;6.23;3.80;;;;;;;6.95;100.00;95142.69;5091169;28;20223;-53
2022/12/17 23:39:26;;;;;;;3.97;3.50;;;;;;;6.90;100.00;95152.28;5091089;28;20302;-53
2022/12/17 23:41:53;;;;;;;4.73;3.70;;;;;;;6.87;100.00;95145.69;5090909;28;20187;-55
2022/12/17 23:44:19;;;;;;;5.27;3.73;;;;;;;6.82;100.00;95145.19;5091135;28;20570;-53
2022/12/17 23:46:44;;;;;;;5.70;4.00;;;;;;;6.81;100.00;95157.91;5091035;28;20328;-55
2022/12/17 23:49:09;;;;;;;5.00;3.80;;;;;;;6.87;100.00;95165.13;5091003;28;20214;-57
2022/12/17 23:51:35;;;;;;;5.13;4.17;;;;;;;6.74;100.00;95155.75;5091040;28;20191;-55
2022/12/17 23:54:00;;;;;;;6.33;4.17;;;;;;;6.76;100.00;95169.13;5093770;28;20553;-56
2022/12/17 23:56:27;;;;;;;5.37;3.63;;;;;;;6.73;100.00;95164.22;5094581;28;20209;-54
2022/12/17 23:58:54;;;;;;;6.37;4.00;;;;;;;6.73;100.00;95179.41;5076223;28;20195;-53
